Time;durP1;ratioP1;P1;durP2;ratioP2;P2;SDS_P1;SDS_P2;PMS_P1;PMS_P2;Temp;Humidity;BMP_temperature;BMP_pressure;BME280_temperature;BME280_humidity;BME280_pressure;Samples;Min_cycle;Max_cycle;Signal;HPM_P1;HPM_P2
2020/12/31 00:00:53;;;;;;;243.20;83.03;;;;;;;;;;5052717;28;20058;-81
2020/12/31 00:03:21;;;;;;;255.15;93.80;;;;;;;;;;5029252;28;20095;-80
2020/12/31 00:05:49;;;;;;;243.98;93.93;;;;;;;;;;5060921;28;20063;-80
2020/12/31 00:08:16;;;;;;;246.02;91.25;;;;;;;;;;5044466;28;20060;-80
2020/12/31 00:10:44;;;;;;;199.85;92.25;;;;;;;;;;5081403;28;20498;-79
2020/12/31 00:13:11;;;;;;;187.45;82.90;;;;;;;;;;5072167;28;20123;-79
2020/12/31 00:15:39;;;;;;;177.32;84.38;;;;;;;;;;5039941;28;20075;-79
2020/12/31 00:18:07;;;;;;;163.18;76.32;;;;;;;;;;5063070;28;20036;-80
2020/12/31 00:20:34;;;;;;;151.18;69.60;;;;;;;;;;5033987;28;20044;-78
2020/12/31 00:23:02;;;;;;;159.07;70.60;;;;;;;;;;5072719;28;20368;-80
2020/12/31 00:25:30;;;;;;;129.10;63.38;;;;;;;;;;5055534;28;20582;-79
2020/12/31 00:27:57;;;;;;;132.95;69.13;;;;;;;;;;5038654;28;20067;-79
2020/12/31 00:30:25;;;;;;;143.02;68.20;;;;;;;;;;5038625;28;20063;-80
2020/12/31 00:32:53;;;;;;;148.38;66.88;;;;;;;;;;5073577;28;20039;-81
2020/12/31 00:35:28;;;;;;;127.32;68.05;;;;;;;;;;5063227;28;20467;-80
2020/12/31 00:37:56;;;;;;;146.85;66.43;;;;;;;;;;5038717;28;20578;-80
2020/12/31 00:40:24;;;;;;;137.20;68.85;;;;;;;;;;5049113;28;20064;-80
2020/12/31 00:42:51;;;;;;;136.18;71.10;;;;;;;;;;5072240;28;20114;-79
2020/12/31 00:45:20;;;;;;;147.20;72.18;;;;;;;;;;5022806;28;20067;-80
2020/12/31 00:47:47;;;;;;;158.55;77.22;;;;;;;;;;5039264;28;20124;-80
2020/12/31 00:50:15;;;;;;;164.95;80.95;;;;;;;;;;5046054;28;20068;-80
2020/12/31 00:52:43;;;;;;;178.93;83.88;;;;;;;;;;5073519;28;20514;-80
2020/12/31 00:55:12;;;;;;;175.25;82.03;;;;;;;;;;5029737;28;20048;-82
2020/12/31 00:57:40;;;;;;;170.52;80.07;;;;;;;;;;5050880;28;20037;-80
2020/12/31 01:00:09;;;;;;;191.02;89.38;;;;;;;;;;5058336;28;20067;-81
2020/12/31 01:02:56;;;;;;;180.20;85.88;;;;;;;;;;5084784;28;20046;-79
2020/12/31 01:05:23;;;;;;;177.90;84.72;;;;;;;;;;5076096;28;20503;-81
2020/12/31 01:07:53;;;;;;;168.30;81.20;;;;;;;;;;5093598;28;20044;-79
2020/12/31 01:10:21;;;;;;;183.25;85.72;;;;;;;;;;5074435;28;20390;-79
2020/12/31 01:12:48;;;;;;;166.50;79.35;;;;;;;;;;5091651;28;20480;-79
2020/12/31 01:15:16;;;;;;;157.00;79.18;;;;;;;;;;5095127;28;20043;-80
2020/12/31 01:17:44;;;;;;;157.77;75.75;;;;;;;;;;5091568;28;20163;-80
2020/12/31 01:20:12;;;;;;;148.93;74.85;;;;;;;;;;5092884;28;20067;-80
2020/12/31 01:22:39;;;;;;;149.43;75.47;;;;;;;;;;5074816;28;20067;-80
2020/12/31 01:25:07;;;;;;;156.10;76.53;;;;;;;;;;5075169;28;20060;-79
2020/12/31 01:27:38;;;;;;;148.20;73.25;;;;;;;;;;5074918;28;20056;-80
2020/12/31 01:30:07;;;;;;;149.88;71.72;;;;;;;;;;5058165;28;20137;-81
2020/12/31 01:32:36;;;;;;;175.50;78.20;;;;;;;;;;5074441;28;20056;-80
2020/12/31 01:35:04;;;;;;;181.63;81.95;;;;;;;;;;5058606;28;20060;-80
2020/12/31 01:37:32;;;;;;;178.75;76.28;;;;;;;;;;5074882;28;20052;-81
2020/12/31 01:40:00;;;;;;;148.82;68.55;;;;;;;;;;5058436;28;20121;-80
2020/12/31 01:42:28;;;;;;;176.95;74.82;;;;;;;;;;5074877;28;20044;-81
2020/12/31 01:44:55;;;;;;;155.90;61.72;;;;;;;;;;5057513;28;20052;-80
2020/12/31 01:47:23;;;;;;;151.23;70.85;;;;;;;;;;5074702;28;20505;-80
2020/12/31 01:49:51;;;;;;;144.90;70.03;;;;;;;;;;5074410;28;20059;-80
2020/12/31 01:52:20;;;;;;;134.98;69.95;;;;;;;;;;5058261;28;20056;-80
2020/12/31 01:54:48;;;;;;;136.98;73.07;;;;;;;;;;5057889;28;20465;-81
2020/12/31 01:57:16;;;;;;;146.60;69.32;;;;;;;;;;5058338;28;20410;-81
2020/12/31 01:59:44;;;;;;;151.88;76.03;;;;;;;;;;5074144;28;20468;-81
2020/12/31 02:02:12;;;;;;;149.35;72.75;;;;;;;;;;5058045;28;20044;-80
2020/12/31 02:04:40;;;;;;;153.13;74.60;;;;;;;;;;5074877;28;20503;-80
2020/12/31 02:07:08;;;;;;;149.10;75.05;;;;;;;;;;5081340;28;20040;-80
2020/12/31 02:09:35;;;;;;;146.57;71.95;;;;;;;;;;5081208;28;20119;-80
2020/12/31 02:12:05;;;;;;;142.48;72.03;;;;;;;;;;5056094;28;20057;-80
2020/12/31 02:14:33;;;;;;;144.63;74.68;;;;;;;;;;5074287;28;20093;-80
2020/12/31 02:17:00;;;;;;;158.45;76.43;;;;;;;;;;5082050;28;20040;-81
2020/12/31 02:19:28;;;;;;;145.13;76.70;;;;;;;;;;5061940;28;20048;-81
2020/12/31 02:21:56;;;;;;;149.43;75.68;;;;;;;;;;5062064;28;20082;-80
2020/12/31 02:24:23;;;;;;;163.93;76.68;;;;;;;;;;5061723;28;20094;-81
2020/12/31 02:26:51;;;;;;;152.45;69.55;;;;;;;;;;5078153;28;20048;-81
2020/12/31 02:29:19;;;;;;;151.18;75.07;;;;;;;;;;5061615;28;20063;-81
2020/12/31 02:31:47;;;;;;;156.77;77.72;;;;;;;;;;5061565;28;20466;-80
2020/12/31 02:34:16;;;;;;;143.52;67.47;;;;;;;;;;5069478;28;20067;-81
2020/12/31 02:36:43;;;;;;;140.63;68.82;;;;;;;;;;5094880;28;20101;-81
2020/12/31 02:39:13;;;;;;;146.65;68.25;;;;;;;;;;5076760;28;20538;-80
2020/12/31 02:41:42;;;;;;;128.18;58.63;;;;;;;;;;5102894;28;20087;-80
2020/12/31 02:44:10;;;;;;;119.15;54.70;;;;;;;;;;5060938;28;20059;-80
2020/12/31 02:46:38;;;;;;;132.00;64.78;;;;;;;;;;5077692;28;20098;-80
2020/12/31 02:49:06;;;;;;;120.90;64.38;;;;;;;;;;5068130;28;20040;-80
2020/12/31 02:51:35;;;;;;;143.23;70.05;;;;;;;;;;5061382;28;20068;-80
2020/12/31 02:54:03;;;;;;;140.57;67.20;;;;;;;;;;5084563;28;20040;-80
2020/12/31 02:56:31;;;;;;;142.25;70.28;;;;;;;;;;5067100;28;20048;-80
2020/12/31 02:58:59;;;;;;;143.43;68.82;;;;;;;;;;5077848;28;20044;-80
2020/12/31 03:01:26;;;;;;;139.52;68.97;;;;;;;;;;5079769;28;20144;-80
2020/12/31 03:03:54;;;;;;;160.88;75.03;;;;;;;;;;5084420;28;20145;-80
2020/12/31 03:06:22;;;;;;;140.93;67.65;;;;;;;;;;5077377;28;20502;-80
2020/12/31 03:08:49;;;;;;;161.88;74.93;;;;;;;;;;5077894;28;20450;-80
2020/12/31 03:11:23;;;;;;;178.20;81.38;;;;;;;;;;5077470;28;20056;-80
2020/12/31 03:13:52;;;;;;;158.18;74.10;;;;;;;;;;5084433;28;20044;-80
2020/12/31 03:16:21;;;;;;;144.95;68.80;;;;;;;;;;5061201;28;20060;-80
2020/12/31 03:18:49;;;;;;;140.82;67.85;;;;;;;;;;5093273;28;20056;-79
2020/12/31 03:21:17;;;;;;;137.40;64.72;;;;;;;;;;5077559;28;20040;-78
2020/12/31 03:23:45;;;;;;;130.38;59.85;;;;;;;;;;5060362;28;20083;-78
2020/12/31 03:26:12;;;;;;;120.22;55.22;;;;;;;;;;5060993;28;20430;-79
2020/12/31 03:28:40;;;;;;;124.45;57.53;;;;;;;;;;5077123;28;20070;-79
2020/12/31 03:31:08;;;;;;;130.77;55.35;;;;;;;;;;5059478;28;20076;-80
2020/12/31 03:33:35;;;;;;;125.10;57.72;;;;;;;;;;5100244;28;20183;-80
2020/12/31 03:36:04;;;;;;;121.15;55.28;;;;;;;;;;5077135;28;20123;-80
2020/12/31 03:38:32;;;;;;;104.03;51.22;;;;;;;;;;5077106;28;20044;-80
2020/12/31 03:41:00;;;;;;;113.63;52.83;;;;;;;;;;5076844;28;20757;-80
2020/12/31 03:43:27;;;;;;;111.00;54.65;;;;;;;;;;5094701;28;20056;-79
2020/12/31 03:45:55;;;;;;;122.53;54.92;;;;;;;;;;5060071;28;20060;-80
2020/12/31 03:48:22;;;;;;;123.10;54.53;;;;;;;;;;5067107;28;20036;-80
2020/12/31 03:50:50;;;;;;;112.55;54.08;;;;;;;;;;5083843;28;20123;-80
2020/12/31 03:53:17;;;;;;;109.30;49.08;;;;;;;;;;5076133;28;20066;-79
2020/12/31 03:55:45;;;;;;;118.82;53.15;;;;;;;;;;5059520;28;20052;-80
2020/12/31 03:58:12;;;;;;;118.97;56.35;;;;;;;;;;5083519;28;20372;-79
2020/12/31 04:00:40;;;;;;;126.18;57.03;;;;;;;;;;5074763;28;20059;-79
2020/12/31 04:03:08;;;;;;;122.30;54.03;;;;;;;;;;5044667;28;20139;-79
2020/12/31 04:05:35;;;;;;;124.75;59.03;;;;;;;;;;5056838;28;20052;-79
2020/12/31 04:08:04;;;;;;;132.65;59.17;;;;;;;;;;5075341;28;20109;-80
2020/12/31 04:10:31;;;;;;;125.00;57.38;;;;;;;;;;5076396;28;20059;-80
2020/12/31 04:12:58;;;;;;;132.77;55.97;;;;;;;;;;5083328;28;20127;-79
2020/12/31 04:15:26;;;;;;;116.72;51.05;;;;;;;;;;5076853;28;20119;-79
2020/12/31 04:17:54;;;;;;;113.53;56.00;;;;;;;;;;5066995;28;20486;-79
2020/12/31 04:20:22;;;;;;;115.25;56.42;;;;;;;;;;5055946;28;20495;-80
2020/12/31 04:22:49;;;;;;;103.20;52.78;;;;;;;;;;5053798;28;20052;-79
2020/12/31 04:25:17;;;;;;;116.85;55.33;;;;;;;;;;5064416;28;20468;-78
2020/12/31 04:27:45;;;;;;;109.40;53.10;;;;;;;;;;5080582;28;20040;-78
2020/12/31 04:30:12;;;;;;;105.97;55.95;;;;;;;;;;5061903;28;20419;-79
2020/12/31 04:32:40;;;;;;;105.22;54.88;;;;;;;;;;5055861;28;20084;-78
2020/12/31 04:35:08;;;;;;;107.28;54.42;;;;;;;;;;5039417;28;20060;-79
2020/12/31 04:37:35;;;;;;;91.63;48.97;;;;;;;;;;5073531;28;20056;-78
2020/12/31 04:40:03;;;;;;;99.78;50.55;;;;;;;;;;5055219;28;20883;-78
2020/12/31 04:42:37;;;;;;;100.18;51.33;;;;;;;;;;5039315;28;20433;-78
2020/12/31 04:45:06;;;;;;;99.13;53.20;;;;;;;;;;5039474;28;20443;-78
2020/12/31 04:47:44;;;;;;;92.03;54.40;;;;;;;;;;5049730;28;20133;-78
2020/12/31 04:50:13;;;;;;;95.68;51.55;;;;;;;;;;5078310;28;20042;-78
2020/12/31 04:52:41;;;;;;;106.28;53.83;;;;;;;;;;5042359;28;20862;-79
2020/12/31 04:55:09;;;;;;;97.85;52.55;;;;;;;;;;5091759;28;20084;-79
2020/12/31 04:57:37;;;;;;;94.60;53.25;;;;;;;;;;5049651;28;20044;-79
2020/12/31 05:00:05;;;;;;;101.82;56.53;;;;;;;;;;5062786;28;20711;-81
2020/12/31 05:02:33;;;;;;;107.25;54.58;;;;;;;;;;5075201;28;20064;-81
2020/12/31 05:05:03;;;;;;;103.65;55.53;;;;;;;;;;5058841;28;20048;-80
2020/12/31 05:07:32;;;;;;;104.22;58.13;;;;;;;;;;5058955;28;20039;-80
2020/12/31 05:10:11;;;;;;;111.00;58.17;;;;;;;;;;5065614;28;20122;-82
2020/12/31 05:12:39;;;;;;;103.97;59.33;;;;;;;;;;5059077;28;20064;-81
2020/12/31 05:15:06;;;;;;;107.32;60.53;;;;;;;;;;5075807;28;20468;-81
2020/12/31 05:17:35;;;;;;;120.75;64.75;;;;;;;;;;5076273;28;20148;-80
2020/12/31 05:20:16;;;;;;;120.47;65.15;;;;;;;;;;5065630;28;20048;-80
2020/12/31 05:22:43;;;;;;;109.38;60.85;;;;;;;;;;5074956;28;20725;-80
2020/12/31 05:25:11;;;;;;;123.75;63.42;;;;;;;;;;5074484;28;20064;-80
2020/12/31 05:27:39;;;;;;;117.88;67.38;;;;;;;;;;5038174;28;20053;-80
2020/12/31 05:30:09;;;;;;;107.60;59.95;;;;;;;;;;5073695;28;20055;-81
2020/12/31 05:32:39;;;;;;;108.78;58.15;;;;;;;;;;5042230;28;20081;-80
2020/12/31 05:35:18;;;;;;;114.53;62.00;;;;;;;;;;5075478;28;20051;-81
2020/12/31 05:37:46;;;;;;;112.25;64.18;;;;;;;;;;5062795;28;20408;-79
2020/12/31 05:40:14;;;;;;;122.93;70.38;;;;;;;;;;5054517;28;20579;-80
2020/12/31 05:42:43;;;;;;;114.80;65.15;;;;;;;;;;5071340;28;20063;-79
2020/12/31 05:45:26;;;;;;;119.13;68.95;;;;;;;;;;5022078;28;20063;-79
2020/12/31 05:47:54;;;;;;;149.98;78.40;;;;;;;;;;5092407;28;20050;-80
2020/12/31 05:50:26;;;;;;;124.75;72.00;;;;;;;;;;5074359;28;20467;-79
2020/12/31 05:52:55;;;;;;;117.45;67.30;;;;;;;;;;5080780;28;20123;-78
2020/12/31 05:55:26;;;;;;;124.28;67.82;;;;;;;;;;5064916;28;20040;-77
2020/12/31 05:57:55;;;;;;;110.47;61.90;;;;;;;;;;5074441;28;20705;-77
2020/12/31 06:00:29;;;;;;;133.45;72.63;;;;;;;;;;5057584;28;20075;-76
2020/12/31 06:03:01;;;;;;;139.27;82.55;;;;;;;;;;5060971;28;20040;-77
2020/12/31 06:05:30;;;;;;;;;;;;;;;;;;5065273;28;20048;-77
2020/12/31 06:07:58;;;;;;;113.90;66.10;;;;;;;;;;5057995;28;19927;-77
2020/12/31 06:10:29;;;;;;;127.35;71.15;;;;;;;;;;5080895;28;20070;-78
2020/12/31 06:13:01;;;;;;;170.57;90.15;;;;;;;;;;5064566;28;20399;-77
2020/12/31 06:15:37;;;;;;;163.70;91.88;;;;;;;;;;5073674;28;20036;-78
2020/12/31 06:18:07;;;;;;;139.70;76.90;;;;;;;;;;5080875;28;20440;-77
2020/12/31 06:20:37;;;;;;;149.10;79.68;;;;;;;;;;5074138;28;20097;-77
2020/12/31 06:23:14;;;;;;;121.55;67.80;;;;;;;;;;5057606;28;20138;-77
2020/12/31 06:25:47;;;;;;;127.07;70.38;;;;;;;;;;5073887;28;20060;-77
2020/12/31 06:28:19;;;;;;;123.30;69.68;;;;;;;;;;5057132;28;20474;-77
2020/12/31 06:30:49;;;;;;;127.10;71.57;;;;;;;;;;5044418;28;20072;-80
2020/12/31 06:33:23;;;;;;;131.13;75.10;;;;;;;;;;5070632;28;20041;-78
2020/12/31 06:35:58;;;;;;;134.75;74.05;;;;;;;;;;5095180;28;20399;-78
2020/12/31 06:38:34;;;;;;;127.65;71.70;;;;;;;;;;5064714;28;20715;-80
2020/12/31 06:41:05;;;;;;;151.00;79.03;;;;;;;;;;5080984;28;20044;-81
2020/12/31 06:43:38;;;;;;;138.05;76.68;;;;;;;;;;5074425;28;20056;-81
2020/12/31 06:46:21;;;;;;;146.68;76.13;;;;;;;;;;5047052;28;20049;-79
2020/12/31 06:48:53;;;;;;;143.88;76.57;;;;;;;;;;5074333;28;20135;-79
2020/12/31 06:51:28;;;;;;;149.95;73.82;;;;;;;;;;5075698;28;20837;-79
2020/12/31 06:53:56;;;;;;;148.68;76.55;;;;;;;;;;5090874;28;20052;-80
2020/12/31 06:56:47;;;;;;;142.82;72.90;;;;;;;;;;5040978;28;20064;-80
2020/12/31 06:59:32;;;;;;;153.20;77.45;;;;;;;;;;5057705;28;20063;-80
2020/12/31 07:02:03;;;;;;;149.07;76.57;;;;;;;;;;5075343;28;20052;-79
2020/12/31 07:04:37;;;;;;;159.98;84.07;;;;;;;;;;5077494;28;20060;-79
2020/12/31 07:07:20;;;;;;;162.02;86.80;;;;;;;;;;5084347;28;20044;-79
2020/12/31 07:09:57;;;;;;;174.60;89.28;;;;;;;;;;5102051;28;20036;-79
2020/12/31 07:12:40;;;;;;;173.30;89.30;;;;;;;;;;5062364;28;20040;-80
2020/12/31 07:15:09;;;;;;;171.00;87.15;;;;;;;;;;5069437;28;20039;-80
2020/12/31 07:17:45;;;;;;;168.90;88.05;;;;;;;;;;5068485;28;20055;-80
2020/12/31 07:20:17;;;;;;;169.45;89.50;;;;;;;;;;5068656;28;20486;-80
2020/12/31 07:22:51;;;;;;;176.70;85.27;;;;;;;;;;5062914;28;20159;-80
2020/12/31 07:25:21;;;;;;;185.10;87.65;;;;;;;;;;5084778;28;20067;-80
2020/12/31 07:27:49;;;;;;;174.10;94.70;;;;;;;;;;5077452;28;20494;-79
2020/12/31 07:30:22;;;;;;;167.27;84.57;;;;;;;;;;5064433;28;20470;-79
2020/12/31 07:33:02;;;;;;;160.77;87.28;;;;;;;;;;5083922;28;20044;-79
2020/12/31 07:35:49;;;;;;;149.98;79.95;;;;;;;;;;5062118;28;20040;-79
2020/12/31 07:38:20;;;;;;;142.48;81.57;;;;;;;;;;5084612;28;20128;-78
2020/12/31 07:40:53;;;;;;;147.38;76.43;;;;;;;;;;5077502;28;20470;-78
2020/12/31 07:43:27;;;;;;;162.82;83.53;;;;;;;;;;5067587;28;20181;-78
2020/12/31 07:46:01;;;;;;;174.17;88.60;;;;;;;;;;5060581;28;20051;-78
2020/12/31 07:48:31;;;;;;;146.95;84.53;;;;;;;;;;5065805;28;20055;-78
2020/12/31 07:51:05;;;;;;;140.20;76.40;;;;;;;;;;5083868;28;20042;-81
2020/12/31 07:53:35;;;;;;;140.05;76.18;;;;;;;;;;5076711;28;20163;-78
2020/12/31 07:56:03;;;;;;;147.98;82.18;;;;;;;;;;5067639;28;20064;-78
2020/12/31 07:58:32;;;;;;;135.32;74.97;;;;;;;;;;5066703;28;20093;-80
2020/12/31 08:01:01;;;;;;;132.75;76.10;;;;;;;;;;5031772;28;20049;-78
2020/12/31 08:03:29;;;;;;;150.90;82.13;;;;;;;;;;5046824;28;20070;-78
2020/12/31 08:06:00;;;;;;;154.95;86.45;;;;;;;;;;5056683;28;20470;-78
2020/12/31 08:08:29;;;;;;;149.70;84.40;;;;;;;;;;5041325;28;20045;-78
2020/12/31 08:10:57;;;;;;;152.63;85.07;;;;;;;;;;5063740;28;20040;-79
2020/12/31 08:13:25;;;;;;;155.30;84.55;;;;;;;;;;5039090;28;20063;-79
2020/12/31 08:15:55;;;;;;;146.52;86.93;;;;;;;;;;5080628;28;20456;-79
2020/12/31 08:18:23;;;;;;;160.55;89.72;;;;;;;;;;5063179;28;20040;-79
2020/12/31 08:20:53;;;;;;;167.40;90.50;;;;;;;;;;5039628;28;20053;-78
2020/12/31 08:23:37;;;;;;;159.38;90.78;;;;;;;;;;5040015;28;20044;-79
2020/12/31 08:26:12;;;;;;;183.40;103.28;;;;;;;;;;5047999;28;20044;-80
2020/12/31 08:28:44;;;;;;;176.40;99.70;;;;;;;;;;5063655;28;20045;-79
2020/12/31 08:31:17;;;;;;;183.13;101.10;;;;;;;;;;5037761;28;20041;-79
2020/12/31 08:33:45;;;;;;;181.95;98.25;;;;;;;;;;5042289;28;20045;-79
2020/12/31 08:36:24;;;;;;;172.45;102.38;;;;;;;;;;5079559;28;20067;-79
2020/12/31 08:38:54;;;;;;;171.63;99.40;;;;;;;;;;5063180;28;20191;-79
2020/12/31 08:55:47;;;;;;;180.80;102.47;;;;;;;;;;5079939;28;20051;-80
2020/12/31 08:58:18;;;;;;;200.07;114.22;;;;;;;;;;5062527;28;20087;-79
2020/12/31 09:00:45;;;;;;;199.02;114.70;;;;;;;;;;5062226;28;20052;-80
2020/12/31 09:03:19;;;;;;;195.70;112.88;;;;;;;;;;5056661;28;20475;-79
2020/12/31 09:05:57;;;;;;;215.88;123.25;;;;;;;;;;5078778;28;20086;-79
2020/12/31 09:08:27;;;;;;;201.88;115.45;;;;;;;;;;5060598;28;20066;-79
2020/12/31 09:11:06;;;;;;;198.45;111.05;;;;;;;;;;5075585;28;20036;-80
2020/12/31 09:13:39;;;;;;;221.65;131.90;;;;;;;;;;5055520;28;20041;-80
2020/12/31 09:16:12;;;;;;;233.10;132.00;;;;;;;;;;5057974;28;20045;-80
2020/12/31 09:18:41;;;;;;;214.10;126.32;;;;;;;;;;5062843;28;20040;-81
2020/12/31 09:23:22;;;;;;;204.73;117.18;;;;;;;;;;5097411;23;20069;-76
2020/12/31 09:25:51;;;;;;;222.68;119.55;;;;;;;;;;4972578;28;20413;-76
2020/12/31 09:28:19;;;;;;;213.68;124.47;;;;;;;;;;4944333;28;20508;-75
2020/12/31 09:30:47;;;;;;;228.00;123.22;;;;;;;;;;4943481;28;20058;-76
2020/12/31 09:33:22;;;;;;;226.65;124.95;;;;;;;;;;4955870;28;20062;-76
2020/12/31 09:35:50;;;;;;;223.93;126.30;;;;;;;;;;4960008;28;20129;-75
2020/12/31 09:38:19;;;;;;;233.13;131.52;;;;;;;;;;4962857;28;20549;-76
2020/12/31 09:40:47;;;;;;;234.10;127.63;;;;;;;;;;4924541;28;20047;-77
2020/12/31 09:43:14;;;;;;;249.32;139.20;;;;;;;;;;4945657;28;20039;-76
2020/12/31 09:45:42;;;;;;;261.73;148.27;;;;;;;;;;4971636;28;20149;-76
2020/12/31 09:48:10;;;;;;;260.15;147.77;;;;;;;;;;4939179;28;20157;-76
2020/12/31 09:50:37;;;;;;;258.90;146.57;;;;;;;;;;4969699;28;20084;-76
2020/12/31 09:53:07;;;;;;;287.65;154.85;;;;;;;;;;5173646;23;20066;-75
2020/12/31 09:55:43;;;;;;;241.65;136.45;;;;;;;;;;4961344;28;20046;-76
2020/12/31 09:58:11;;;;;;;223.85;120.25;;;;;;;;;;4956142;28;20070;-75
2020/12/31 10:00:38;;;;;;;224.02;117.20;;;;;;;;;;4956442;28;20068;-75
2020/12/31 10:03:06;;;;;;;226.93;120.93;;;;;;;;;;4972410;28;20050;-74
2020/12/31 10:05:34;;;;;;;222.65;120.13;;;;;;;;;;4956869;28;20050;-75
2020/12/31 10:08:01;;;;;;;224.10;124.07;;;;;;;;;;4971920;28;20595;-75
2020/12/31 10:10:29;;;;;;;221.40;123.28;;;;;;;;;;4972056;28;20581;-75
2020/12/31 10:12:57;;;;;;;203.20;109.82;;;;;;;;;;4971953;28;20061;-75
2020/12/31 10:15:24;;;;;;;176.68;102.30;;;;;;;;;;4955733;28;20063;-75
2020/12/31 10:17:52;;;;;;;154.60;92.38;;;;;;;;;;4956522;28;20090;-75
2020/12/31 10:20:20;;;;;;;157.02;91.90;;;;;;;;;;4953240;28;20065;-75
2020/12/31 10:22:47;;;;;;;146.65;95.25;;;;;;;;;;4971783;28;20133;-74
2020/12/31 10:25:15;;;;;;;164.02;99.63;;;;;;;;;;4955525;28;20034;-74
2020/12/31 10:27:42;;;;;;;149.65;97.63;;;;;;;;;;4971693;28;20125;-74
2020/12/31 10:30:10;;;;;;;156.48;99.75;;;;;;;;;;4988486;28;20120;-74
2020/12/31 10:32:37;;;;;;;159.10;104.15;;;;;;;;;;4971427;28;20515;-74
2020/12/31 10:35:06;;;;;;;173.38;105.35;;;;;;;;;;4962372;28;20410;-74
2020/12/31 10:37:33;;;;;;;166.95;98.00;;;;;;;;;;4956702;28;20444;-74
2020/12/31 10:40:02;;;;;;;152.27;93.80;;;;;;;;;;4976878;28;20054;-74
2020/12/31 10:42:30;;;;;;;161.15;98.72;;;;;;;;;;4975198;28;20054;-74
2020/12/31 10:44:57;;;;;;;159.00;102.95;;;;;;;;;;4981987;28;20079;-74
2020/12/31 10:47:25;;;;;;;151.88;99.13;;;;;;;;;;4975168;28;20054;-74
2020/12/31 10:49:53;;;;;;;147.73;88.47;;;;;;;;;;4980175;28;20045;-80
2020/12/31 10:52:20;;;;;;;162.82;95.00;;;;;;;;;;4979703;28;20038;-80
2020/12/31 10:54:48;;;;;;;166.10;96.93;;;;;;;;;;4963418;28;20559;-80
2020/12/31 10:57:19;;;;;;;167.27;95.00;;;;;;;;;;4979337;28;20042;-80
2020/12/31 10:59:47;;;;;;;152.60;85.25;;;;;;;;;;4986367;28;20054;-80
2020/12/31 11:02:15;;;;;;;163.10;93.90;;;;;;;;;;4979757;28;20545;-80
2020/12/31 11:04:43;;;;;;;162.40;101.55;;;;;;;;;;4997017;28;20077;-80
2020/12/31 11:07:11;;;;;;;165.90;101.85;;;;;;;;;;4963493;28;20453;-82
2020/12/31 11:09:38;;;;;;;167.32;100.40;;;;;;;;;;4962707;28;20086;-79
2020/12/31 11:12:06;;;;;;;164.07;99.65;;;;;;;;;;4978925;28;20042;-79
2020/12/31 11:14:34;;;;;;;157.55;95.47;;;;;;;;;;4955384;28;20070;-80
2020/12/31 11:17:02;;;;;;;163.95;102.15;;;;;;;;;;4963058;28;20065;-79
2020/12/31 11:19:30;;;;;;;158.10;102.25;;;;;;;;;;4969401;28;20051;-79
2020/12/31 11:21:57;;;;;;;177.07;109.80;;;;;;;;;;4978830;28;20046;-80
2020/12/31 11:24:25;;;;;;;206.02;130.38;;;;;;;;;;4986427;28;20601;-79
2020/12/31 11:26:53;;;;;;;171.50;109.10;;;;;;;;;;4979277;28;20052;-80
2020/12/31 11:29:21;;;;;;;167.82;106.32;;;;;;;;;;4963401;28;20058;-80
2020/12/31 11:31:48;;;;;;;159.45;108.50;;;;;;;;;;4978644;28;20058;-79
2020/12/31 11:34:27;;;;;;;144.05;98.80;;;;;;;;;;4965197;28;20440;-79
2020/12/31 11:36:56;;;;;;;139.45;88.82;;;;;;;;;;4978918;28;20042;-80
2020/12/31 11:39:23;;;;;;;152.75;94.45;;;;;;;;;;4984923;28;20121;-80
2020/12/31 11:41:59;;;;;;;150.95;95.65;;;;;;;;;;4962381;28;20050;-80
2020/12/31 11:44:27;;;;;;;166.88;102.18;;;;;;;;;;4980642;28;20120;-80
2020/12/31 11:47:00;;;;;;;174.30;105.40;;;;;;;;;;4978149;28;20129;-80
2020/12/31 11:49:27;;;;;;;;;;;;;;;;;;5002123;28;20125;-80
2020/12/31 11:51:59;;;;;;;134.23;88.03;;;;;;;;;;4978288;28;19925;-80
2020/12/31 11:54:27;;;;;;;140.15;88.47;;;;;;;;;;4963147;28;20058;-80
2020/12/31 11:56:55;;;;;;;141.18;89.50;;;;;;;;;;4978487;28;20093;-80
2020/12/31 11:59:22;;;;;;;154.57;96.53;;;;;;;;;;4967780;28;20042;-79
2020/12/31 12:01:51;;;;;;;145.15;93.22;;;;;;;;;;4994976;28;20058;-80
2020/12/31 12:04:20;;;;;;;146.65;97.13;;;;;;;;;;4978142;28;20042;-80
2020/12/31 12:06:54;;;;;;;149.95;91.20;;;;;;;;;;4928965;28;20061;-80
2020/12/31 12:09:22;;;;;;;133.63;89.05;;;;;;;;;;4987010;28;20053;-79
2020/12/31 12:11:50;;;;;;;150.45;96.15;;;;;;;;;;4977146;28;20050;-79
2020/12/31 12:14:18;;;;;;;169.40;103.57;;;;;;;;;;4977676;28;20097;-79
2020/12/31 12:16:50;;;;;;;155.93;105.22;;;;;;;;;;4977148;28;20062;-79
2020/12/31 12:19:18;;;;;;;152.18;103.63;;;;;;;;;;4966835;28;20054;-77
2020/12/31 12:21:46;;;;;;;151.43;101.75;;;;;;;;;;4950590;28;20042;-80
2020/12/31 12:24:13;;;;;;;152.45;101.72;;;;;;;;;;4943244;28;20128;-78
2020/12/31 12:26:41;;;;;;;152.73;94.97;;;;;;;;;;4993278;28;20519;-78
2020/12/31 12:29:09;;;;;;;137.27;90.57;;;;;;;;;;4981665;28;20070;-78
2020/12/31 12:31:38;;;;;;;138.00;88.07;;;;;;;;;;4976256;28;20053;-79
2020/12/31 12:34:07;;;;;;;140.85;87.35;;;;;;;;;;4993253;28;20058;-78
2020/12/31 12:36:35;;;;;;;130.75;80.60;;;;;;;;;;4960303;28;20441;-79
2020/12/31 12:39:07;;;;;;;116.53;74.97;;;;;;;;;;4982803;28;20449;-78
2020/12/31 12:41:35;;;;;;;115.17;74.97;;;;;;;;;;4967088;28;20097;-79
2020/12/31 12:44:03;;;;;;;118.47;75.05;;;;;;;;;;4965651;28;20073;-78
2020/12/31 12:46:30;;;;;;;127.53;85.43;;;;;;;;;;4960353;28;20070;-81
2020/12/31 12:49:01;;;;;;;169.38;102.30;;;;;;;;;;4982887;28;20038;-81
2020/12/31 12:51:33;;;;;;;134.02;87.80;;;;;;;;;;4983747;28;20066;-80
2020/12/31 12:54:01;;;;;;;141.98;91.75;;;;;;;;;;4946358;28;20201;-80
2020/12/31 12:56:29;;;;;;;117.03;77.53;;;;;;;;;;4977239;28;20052;-79
2020/12/31 12:58:57;;;;;;;133.93;80.78;;;;;;;;;;4951346;28;20121;-79
2020/12/31 13:01:25;;;;;;;132.70;83.78;;;;;;;;;;4961992;28;20449;-78
2020/12/31 13:03:53;;;;;;;135.20;85.63;;;;;;;;;;4976619;28;20054;-81
2020/12/31 13:06:20;;;;;;;118.45;71.90;;;;;;;;;;4983646;28;20045;-81
2020/12/31 13:08:48;;;;;;;117.72;73.82;;;;;;;;;;4967911;28;20046;-79
2020/12/31 13:11:22;;;;;;;131.80;80.65;;;;;;;;;;4976542;28;20081;-80
2020/12/31 13:13:50;;;;;;;136.55;84.68;;;;;;;;;;4944955;28;20088;-82
2020/12/31 13:16:18;;;;;;;139.18;92.35;;;;;;;;;;4967875;28;20046;-82
2020/12/31 13:18:45;;;;;;;139.77;86.72;;;;;;;;;;4994258;28;20046;-81
2020/12/31 13:21:17;;;;;;;135.77;82.50;;;;;;;;;;4944874;28;20058;-80
2020/12/31 13:23:44;;;;;;;156.18;94.78;;;;;;;;;;4983863;28;20093;-80
2020/12/31 13:26:12;;;;;;;189.13;107.20;;;;;;;;;;4960681;28;20093;-80
2020/12/31 13:28:40;;;;;;;168.75;98.18;;;;;;;;;;4977996;28;20397;-79
2020/12/31 13:31:07;;;;;;;213.18;112.43;;;;;;;;;;4975845;28;20116;-79
2020/12/31 13:33:35;;;;;;;148.77;90.85;;;;;;;;;;4967369;28;20040;-79
2020/12/31 13:36:04;;;;;;;139.05;90.05;;;;;;;;;;4959221;28;20109;-79
2020/12/31 13:38:31;;;;;;;117.78;75.93;;;;;;;;;;4944257;28;20058;-79
2020/12/31 13:40:59;;;;;;;89.13;58.90;;;;;;;;;;4960315;28;20058;-79
2020/12/31 13:43:28;;;;;;;94.88;60.92;;;;;;;;;;4983204;28;20116;-80
2020/12/31 13:45:56;;;;;;;93.82;62.13;;;;;;;;;;4959544;28;20038;-79
2020/12/31 13:48:23;;;;;;;107.10;66.35;;;;;;;;;;4993437;28;20066;-79
2020/12/31 13:50:51;;;;;;;96.15;59.60;;;;;;;;;;4966602;28;20043;-79
2020/12/31 13:53:18;;;;;;;102.93;60.08;;;;;;;;;;4960376;28;20105;-79
2020/12/31 13:55:46;;;;;;;96.15;57.45;;;;;;;;;;4982493;28;20050;-79
2020/12/31 13:58:14;;;;;;;110.43;65.18;;;;;;;;;;4975749;28;20065;-79
2020/12/31 14:00:41;;;;;;;111.13;66.85;;;;;;;;;;4973965;28;20043;-78
2020/12/31 14:03:09;;;;;;;123.88;74.15;;;;;;;;;;4976297;28;20093;-79
2020/12/31 14:05:37;;;;;;;244.73;145.13;;;;;;;;;;4960383;28;20807;-79
2020/12/31 14:08:05;;;;;;;178.55;100.03;;;;;;;;;;4959633;28;20046;-79
2020/12/31 14:10:35;;;;;;;232.85;115.47;;;;;;;;;;4982365;28;20043;-79
2020/12/31 14:13:03;;;;;;;246.63;120.55;;;;;;;;;;4983487;28;20042;-80
2020/12/31 14:15:31;;;;;;;185.23;104.85;;;;;;;;;;5003862;28;20051;-80
2020/12/31 14:17:59;;;;;;;227.02;115.43;;;;;;;;;;4981240;28;20038;-80
2020/12/31 14:20:28;;;;;;;246.80;122.05;;;;;;;;;;4986664;28;20070;-78
2020/12/31 14:22:55;;;;;;;216.55;119.47;;;;;;;;;;4963576;28;20038;-79
2020/12/31 14:25:23;;;;;;;206.52;116.10;;;;;;;;;;4976162;28;20170;-79
2020/12/31 14:27:51;;;;;;;230.90;128.98;;;;;;;;;;4979144;28;20567;-78
2020/12/31 14:30:18;;;;;;;264.50;147.43;;;;;;;;;;4963294;28;20062;-80
2020/12/31 14:32:46;;;;;;;235.60;135.65;;;;;;;;;;4995943;28;20069;-79